Date,TemperatureHighF,TemperatureAvgF,TemperatureLowF,DewpointHighF,DewpointAvgF,DewpointLowF,HumidityHigh,HumidityAvg,HumidityLow,PressureMaxIn,PressureMinIn,WindSpeedMaxMPH,WindSpeedAvgMPH,GustSpeedMaxMPH,PrecipitationSumIn
2013-1-1,41.0,38.9,31.1,41.0,38.9,30.9,100,100,100,30.19,30.02,3,0,5,0.04
2013-1-2,38.3,29.2,23.4,36.9,22.5,13.8,100,77,56,30.25,30.17,0,0,0,0.00
2013-1-3,42.3,31.5,23.0,30.9,20.5,14.9,82,65,47,30.37,30.22,0,0,4,0.00
2013-1-4,44.4,33.4,24.6,31.9,20.5,13.7,83,60,46,30.43,30.34,8,1,13,0.00
2013-1-5,46.4,37.8,28.4,27.8,24.1,15.0,68,58,48,30.34,30.17,6,1,8,0.00
2013-1-6,46.9,37.8,27.9,31.1,23.5,12.5,77,57,45,30.34,30.14,10,2,15,0.00
2013-1-7,45.3,33.4,23.0,26.1,19.1,12.7,72,56,46,30.40,30.17,6,1,8,0.00
2013-1-8,54.7,42.4,29.5,33.2,28.0,20.0,76,58,44,30.19,30.11,7,1,9,0.00
2013-1-9,58.6,52.3,46.6,41.5,37.5,32.4,73,58,45,30.34,30.17,10,3,15,0.00
2013-1-10,66.6,57.5,47.3,66.6,57.1,35.9,100,98,62,30.31,29.81,10,2,15,0.43
2013-1-11,64.8,57.4,51.3,64.8,51.5,40.7,100,83,52,29.96,29.84,8,3,15,0.00
2013-1-12,63.0,57.5,42.1,63.0,56.5,42.1,100,97,75,29.90,29.66,10,2,15,3.31
2013-1-13,42.4,38.3,30.6,42.4,38.3,30.6,100,100,100,30.31,29.78,8,2,13,0.31
2013-1-14,34.0,26.8,21.7,32.2,20.9,10.1,100,80,59,30.43,30.28,0,0,0,0.00
2013-1-15,29.8,25.7,20.7,21.2,15.0,9.4,70,64,55,30.31,30.08,10,2,13,0.00
2013-1-16,38.1,30.8,25.9,23.3,18.1,15.2,71,59,47,30.17,30.05,5,2,8,0.04
2013-1-17,47.8,35.7,26.8,31.5,22.5,15.8,69,59,50,30.46,30.11,10,3,15,0.00
2013-1-18,33.3,28.7,25.3,18.4,16.6,15.2,69,60,51,30.49,30.46,3,0,4,0.00
2013-1-21,32.2,31.9,31.6,15.1,14.9,14.6,49,49,49,30.28,30.28,3,2,4,0.00
2013-1-22,35.2,26.9,21.0,17.5,10.7,5.7,53,50,48,30.40,30.31,6,2,8,0.00
2013-1-23,52.3,34.5,19.2,31.0,20.0,7.5,71,56,44,30.31,30.11,7,1,12,0.00
2013-1-24,41.5,32.0,28.9,25.2,15.0,12.1,52,49,48,30.46,30.19,9,4,13,0.00
2013-1-25,47.3,37.5,30.4,31.0,22.5,14.1,68,55,48,30.22,30.08,7,2,10,0.00
2013-1-26,53.1,40.8,31.3,31.7,25.0,20.2,66,54,44,30.31,30.19,5,1,8,0.00
2013-1-27,60.6,47.8,38.5,56.7,35.7,21.6,87,63,49,30.25,30.02,5,1,9,0.04
2013-1-28,72.1,65.1,59.0,58.4,53.8,49.6,81,67,49,30.05,29.96,9,3,15,0.00
2013-1-29,69.3,65.0,58.1,68.0,57.0,51.6,100,77,54,29.96,29.46,13,5,23,1.14
2013-1-30,58.1,48.8,31.3,58.1,44.7,18.1,100,87,57,29.99,29.46,14,4,21,0.04
2013-1-31,49.6,35.1,23.7,30.2,21.6,7.6,78,58,45,30.37,29.99,12,5,17,0.00